createdAt,value
2023-01-10T00:02:18.349Z,9.40
2023-01-10T00:05:04.478Z,9.07
2023-01-10T00:07:51.679Z,9.55
2023-01-10T00:10:37.437Z,9.82
2023-01-10T00:13:23.398Z,9.93
2023-01-10T00:16:09.559Z,9.98
2023-01-10T00:18:55.679Z,9.38
2023-01-10T00:21:41.399Z,10.23
2023-01-10T00:24:27.067Z,10.30
2023-01-10T00:27:12.976Z,10.25
2023-01-10T00:30:01.553Z,10.35
2023-01-10T00:32:47.396Z,9.95
2023-01-10T00:35:33.312Z,10.10
2023-01-10T00:38:19.297Z,10.25
2023-01-10T00:41:25.225Z,10.30
2023-01-10T00:44:10.922Z,9.93
2023-01-10T00:46:56.851Z,10.25
2023-01-10T00:49:42.991Z,10.70
2023-01-10T00:52:29.095Z,10.00
2023-01-10T00:55:14.791Z,9.45
2023-01-10T00:58:00.815Z,9.77
2023-01-10T01:00:47.041Z,9.45
2023-01-10T01:03:33.042Z,8.27
2023-01-10T01:06:18.884Z,7.80
2023-01-10T01:09:04.591Z,7.30
2023-01-10T01:11:50.328Z,7.05
2023-01-10T01:14:36.106Z,7.15
2023-01-10T01:17:21.746Z,6.95
2023-01-10T01:20:08.301Z,6.13
2023-01-10T01:22:54.594Z,5.50
2023-01-10T01:25:41.078Z,5.50
2023-01-10T01:28:26.867Z,5.15
2023-01-10T01:31:15.367Z,4.90
2023-01-10T01:34:01.264Z,4.05
2023-01-10T01:36:47.407Z,4.00
2023-01-10T01:39:33.303Z,4.15
2023-01-10T01:42:27.077Z,3.40
2023-01-10T01:48:18.497Z,3.58
2023-01-10T01:51:14.959Z,2.28
2023-01-10T01:54:12.119Z,2.33
2023-01-10T01:57:04.298Z,2.30
2023-01-10T01:59:52.971Z,2.42
2023-01-10T02:03:01.284Z,1.90
2023-01-10T02:05:47.769Z,1.98
2023-01-10T02:08:33.956Z,1.92
2023-01-10T02:11:21.013Z,2.03
2023-01-10T02:14:08.969Z,1.80
2023-01-10T02:16:54.604Z,2.00
2023-01-10T02:19:43.370Z,1.92
2023-01-10T02:23:05.694Z,1.98
2023-01-10T02:26:04.069Z,1.92
2023-01-10T02:28:49.893Z,2.03
2023-01-10T02:31:50.738Z,2.13
2023-01-10T02:34:45.636Z,1.92
2023-01-10T02:37:53.524Z,2.00
2023-01-10T02:41:15.658Z,1.95
2023-01-10T02:44:32.072Z,1.70
2023-01-10T02:47:19.147Z,1.73
2023-01-10T02:50:37.342Z,1.80
2023-01-10T02:53:28.956Z,2.17
2023-01-10T02:57:09.694Z,2.00
2023-01-10T03:00:13.815Z,1.98
2023-01-10T03:03:12.179Z,10.20
2023-01-10T03:06:07.935Z,9.30
2023-01-10T03:09:03.671Z,7.18
2023-01-10T03:11:52.083Z,3.88
2023-01-10T03:14:38.593Z,2.47
2023-01-10T03:17:24.760Z,2.30
2023-01-10T03:20:11.537Z,2.40
2023-01-10T03:22:57.643Z,1.90
2023-01-10T03:25:48.176Z,2.40
2023-01-10T03:28:46.299Z,2.08
2023-01-10T03:31:40.702Z,2.60
2023-01-10T03:34:26.761Z,7.80
2023-01-10T03:37:37.106Z,5.22
2023-01-10T03:40:30.524Z,7.53
2023-01-10T03:43:41.898Z,6.90
2023-01-10T03:46:54.781Z,5.28
2023-01-10T03:49:43.516Z,2.95
2023-01-10T03:52:29.951Z,2.70
2023-01-10T03:55:22.502Z,2.20
2023-01-10T03:58:08.557Z,2.90
2023-01-10T04:00:54.244Z,2.83
2023-01-10T04:03:43.112Z,2.53
2023-01-10T04:06:28.993Z,4.18
2023-01-10T04:09:15.620Z,2.70
2023-01-10T04:12:01.318Z,2.88
2023-01-10T04:14:47.271Z,2.35
2023-01-10T04:17:33.182Z,2.53
2023-01-10T04:20:18.781Z,2.10
2023-01-10T04:23:04.555Z,2.20
2023-01-10T04:25:50.193Z,2.65
2023-01-10T04:28:35.806Z,3.20
2023-01-10T04:31:22.906Z,3.30
2023-01-10T04:34:09.437Z,2.60
2023-01-10T04:36:55.349Z,2.80
2023-01-10T04:39:40.955Z,3.08
2023-01-10T04:42:26.635Z,3.22
2023-01-10T04:45:13.693Z,4.45
2023-01-10T04:48:00.226Z,5.22
2023-01-10T04:50:50.875Z,7.05
2023-01-10T04:53:36.689Z,4.47
2023-01-10T04:56:23.627Z,3.65
2023-01-10T04:59:10.478Z,2.70
2023-01-10T05:01:57.598Z,2.60
2023-01-10T05:04:43.513Z,2.30
2023-01-10T05:07:29.165Z,2.55
2023-01-10T05:10:15.146Z,3.58
2023-01-10T05:13:01.015Z,4.70
2023-01-10T05:15:46.840Z,4.00
2023-01-10T05:18:32.561Z,3.55
2023-01-10T05:21:18.494Z,3.13
2023-01-10T05:24:04.587Z,3.08
2023-01-10T05:26:50.435Z,3.20
2023-01-10T05:29:36.196Z,3.63
2023-01-10T05:32:22.072Z,4.10
2023-01-10T05:35:07.972Z,5.68
2023-01-10T05:37:54.174Z,6.32
2023-01-10T05:40:39.760Z,5.15
2023-01-10T05:43:26.342Z,4.88
2023-01-10T05:46:12.031Z,4.53
2023-01-10T05:48:57.666Z,3.75
2023-01-10T05:51:43.402Z,3.40
2023-01-10T05:54:29.847Z,3.30
2023-01-10T05:57:15.892Z,2.65
2023-01-10T06:00:04.860Z,3.60
2023-01-10T06:02:57.777Z,3.80
2023-01-10T06:05:43.460Z,3.25
2023-01-10T06:08:29.259Z,3.15
2023-01-10T06:11:15.213Z,3.83
2023-01-10T06:14:01.096Z,2.80
2023-01-10T06:16:47.274Z,3.28
2023-01-10T06:19:32.942Z,4.35
2023-01-10T06:22:18.582Z,4.63
2023-01-10T06:25:04.739Z,6.00
2023-01-10T06:27:50.784Z,5.25
2023-01-10T06:30:36.703Z,5.80
2023-01-10T06:33:22.612Z,6.78
2023-01-10T06:36:08.619Z,7.30
2023-01-10T06:38:54.335Z,5.43
2023-01-10T06:41:40.014Z,4.85
2023-01-10T06:44:25.718Z,4.80
2023-01-10T06:47:11.739Z,5.18
2023-01-10T06:49:58.103Z,5.15
2023-01-10T06:52:43.640Z,6.78
2023-01-10T06:55:29.960Z,7.38
2023-01-10T06:58:18.489Z,9.07
2023-01-10T07:01:12.903Z,9.95
2023-01-10T07:03:59.074Z,8.75
2023-01-10T07:06:45.673Z,8.38
2023-01-10T07:09:31.436Z,7.32
2023-01-10T07:12:17.024Z,7.88
2023-01-10T07:15:02.613Z,11.05
2023-01-10T07:17:48.405Z,12.10
2023-01-10T07:20:34.039Z,15.32
2023-01-10T07:23:19.698Z,10.98
2023-01-10T07:26:10.255Z,11.07
2023-01-10T07:28:56.110Z,9.95
2023-01-10T07:31:41.905Z,9.73
2023-01-10T07:34:27.780Z,9.43
2023-01-10T07:37:13.350Z,7.63
2023-01-10T07:39:59.145Z,9.13
2023-01-10T07:42:44.832Z,9.05
2023-01-10T07:45:31.116Z,9.57
2023-01-10T07:48:16.889Z,12.82
2023-01-10T07:51:03.303Z,10.77
2023-01-10T07:53:49.350Z,9.80
2023-01-10T07:56:35.157Z,9.48
2023-01-10T07:59:24.040Z,10.65
2023-01-10T08:02:11.133Z,8.50
2023-01-10T08:04:56.791Z,9.75
2023-01-10T08:07:42.653Z,9.68
2023-01-10T08:10:28.350Z,14.07
2023-01-10T08:13:18.887Z,10.30
2023-01-10T08:16:06.679Z,12.85
2023-01-10T08:18:52.639Z,10.98
2023-01-10T08:21:38.327Z,8.63
2023-01-10T08:24:23.801Z,11.75
2023-01-10T08:27:09.755Z,13.55
2023-01-10T08:29:55.698Z,13.10
2023-01-10T08:32:41.333Z,43.63
2023-01-10T08:35:27.165Z,10.25
2023-01-10T08:38:13.226Z,32.28
2023-01-10T08:40:59.246Z,23.45
2023-01-10T08:43:44.856Z,11.07
2023-01-10T08:46:30.619Z,9.48
2023-01-10T08:49:16.625Z,7.75
2023-01-10T08:52:02.691Z,9.07
2023-01-10T08:54:48.471Z,9.98
2023-01-10T08:57:34.625Z,11.25
2023-01-10T09:00:24.096Z,11.98
2023-01-10T09:03:22.085Z,12.00
2023-01-10T09:06:08.698Z,12.70
2023-01-10T09:08:54.174Z,13.93
2023-01-10T09:11:41.877Z,12.20
2023-01-10T09:14:28.093Z,9.90
2023-01-10T09:17:13.880Z,9.07
2023-01-10T09:20:00.168Z,9.98
2023-01-10T09:22:46.096Z,10.88
2023-01-10T09:25:31.630Z,13.40
2023-01-10T09:28:18.306Z,14.82
2023-01-10T09:31:04.610Z,17.73
2023-01-10T09:33:50.434Z,14.88
2023-01-10T09:36:36.248Z,8.93
2023-01-10T09:39:22.044Z,8.02
2023-01-10T09:42:29.135Z,7.72
2023-01-10T09:45:22.175Z,8.00
2023-01-10T09:48:25.047Z,15.55
2023-01-10T09:51:39.718Z,11.50
2023-01-10T09:54:28.894Z,16.02
2023-01-10T09:57:18.863Z,16.90
2023-01-10T10:00:18.381Z,25.90
2023-01-10T10:03:22.065Z,16.77
2023-01-10T10:06:12.760Z,16.70
2023-01-10T10:08:58.649Z,17.17
2023-01-10T10:12:16.550Z,18.02
2023-01-10T10:15:32.762Z,15.45
2023-01-10T10:18:28.516Z,19.88
2023-01-10T10:21:38.934Z,18.38
2023-01-10T10:24:52.588Z,24.05
2023-01-10T10:27:59.484Z,24.27
2023-01-10T10:30:51.445Z,25.42
2023-01-10T10:34:03.606Z,26.05
2023-01-10T10:37:15.867Z,23.98
2023-01-10T10:40:30.425Z,21.33
2023-01-10T10:43:21.765Z,19.70
2023-01-10T10:46:09.994Z,16.83
2023-01-10T10:49:02.120Z,16.30
2023-01-10T10:51:52.555Z,13.32
2023-01-10T10:54:38.545Z,13.10
2023-01-10T10:57:27.321Z,11.65
2023-01-10T11:00:18.821Z,14.02
2023-01-10T11:03:11.168Z,48.38
2023-01-10T11:05:57.606Z,26.02
2023-01-10T11:08:45.784Z,59.78
2023-01-10T11:11:39.083Z,18.30
2023-01-10T11:14:55.344Z,17.45
2023-01-10T11:17:41.577Z,11.30
2023-01-10T11:20:27.282Z,11.88
2023-01-10T11:23:44.074Z,10.80
2023-01-10T11:26:39.288Z,7.63
2023-01-10T11:29:39.169Z,7.55
2023-01-10T11:32:36.215Z,4.57
2023-01-10T11:35:29.616Z,3.08
2023-01-10T11:38:22.062Z,2.75
2023-01-10T11:41:34.666Z,2.90
2023-01-10T11:44:26.362Z,2.10
2023-01-10T11:47:14.945Z,2.83
2023-01-10T11:50:02.473Z,2.47
2023-01-10T11:52:49.274Z,1.45
2023-01-10T11:55:37.035Z,1.38
2023-01-10T11:58:22.962Z,1.00
2023-01-10T12:01:29.700Z,1.30
2023-01-10T12:04:17.080Z,0.50
2023-01-10T12:07:09.541Z,0.80
2023-01-10T12:09:58.278Z,0.52
2023-01-10T12:12:57.250Z,0.40
2023-01-10T12:15:43.402Z,0.50
2023-01-10T12:18:31.467Z,0.65
2023-01-10T12:21:22.255Z,0.80
2023-01-10T12:24:25.301Z,1.73
2023-01-10T12:27:13.613Z,0.70
2023-01-10T12:30:01.765Z,0.65
2023-01-10T12:32:54.535Z,0.65
2023-01-10T12:35:45.455Z,0.80
2023-01-10T12:39:11.354Z,0.60
2023-01-10T12:42:36.897Z,0.60
2023-01-10T12:45:27.068Z,0.70
2023-01-10T12:48:17.873Z,1.25
2023-01-10T12:51:08.292Z,0.90
2023-01-10T12:53:56.843Z,0.73
2023-01-10T12:56:43.702Z,0.70
2023-01-10T12:59:39.534Z,0.73
2023-01-10T13:02:27.275Z,0.77
2023-01-10T13:05:25.464Z,0.75
2023-01-10T13:08:13.771Z,0.80
2023-01-10T13:11:00.622Z,0.50
2023-01-10T13:13:52.400Z,0.70
2023-01-10T13:16:58.846Z,0.60
2023-01-10T13:20:25.284Z,4.38
2023-01-10T13:23:30.639Z,1.10
2023-01-10T13:29:03.985Z,0.80
2023-01-10T13:31:51.173Z,0.85
2023-01-10T13:34:36.886Z,0.80
2023-01-10T13:37:25.069Z,1.10
2023-01-10T13:40:24.493Z,1.00
2023-01-10T13:43:35.177Z,1.15
2023-01-10T13:46:21.285Z,1.15
2023-01-10T13:49:10.167Z,0.73
2023-01-10T13:52:31.717Z,0.95
2023-01-10T13:55:34.638Z,0.80
2023-01-10T13:58:43.647Z,0.90
2023-01-10T14:01:54.461Z,0.70
2023-01-10T14:04:47.486Z,0.90
2023-01-10T14:07:55.030Z,0.70
2023-01-10T14:10:40.770Z,0.57
2023-01-10T14:13:26.555Z,1.00
2023-01-10T14:16:34.567Z,0.82
2023-01-10T14:19:28.671Z,0.90
2023-01-10T14:22:29.513Z,0.90
2023-01-10T14:25:21.347Z,1.13
2023-01-10T14:28:28.927Z,0.82
2023-01-10T14:31:23.729Z,18.35
2023-01-10T14:34:11.889Z,1.13
2023-01-10T14:37:16.979Z,1.30
2023-01-10T14:40:15.823Z,1.20
2023-01-10T14:43:03.728Z,1.50
2023-01-10T14:46:03.926Z,1.00
2023-01-10T14:48:53.769Z,1.02
2023-01-10T14:51:39.819Z,0.98
2023-01-10T14:54:29.502Z,0.90
2023-01-10T14:57:21.928Z,1.40
2023-01-10T15:00:12.011Z,4.38
2023-01-10T15:02:59.729Z,5.97
2023-01-10T15:05:48.196Z,2.15
2023-01-10T15:08:34.162Z,1.60
2023-01-10T15:11:21.785Z,1.58
2023-01-10T15:14:10.995Z,1.10
2023-01-10T15:17:02.168Z,2.20
2023-01-10T15:19:53.773Z,2.78
2023-01-10T15:22:39.748Z,1.50
2023-01-10T15:25:29.992Z,0.90
2023-01-10T15:28:17.778Z,2.33
2023-01-10T15:31:05.455Z,2.00
2023-01-10T15:33:56.702Z,1.67
2023-01-10T15:37:06.578Z,2.05
2023-01-10T15:39:54.119Z,1.40
2023-01-10T15:42:40.220Z,2.25
2023-01-10T15:45:47.215Z,2.70
2023-01-10T15:48:40.156Z,3.42
2023-01-10T15:51:38.824Z,2.60
2023-01-10T15:54:24.493Z,2.72
2023-01-10T15:57:41.138Z,14.05
2023-01-10T16:00:27.554Z,5.13
2023-01-10T16:03:27.698Z,1.50
2023-01-10T16:06:25.543Z,1.30
2023-01-10T16:09:20.395Z,1.30
2023-01-10T16:12:31.161Z,1.73
2023-01-10T16:15:39.320Z,1.33
2023-01-10T16:18:25.631Z,1.10
2023-01-10T16:21:14.328Z,1.20
2023-01-10T16:24:04.864Z,1.38
2023-01-10T16:26:51.341Z,1.77
2023-01-10T16:29:37.992Z,1.50
2023-01-10T16:32:23.829Z,1.65
2023-01-10T16:35:09.902Z,1.58
2023-01-10T16:37:57.666Z,1.42
2023-01-10T16:40:48.835Z,1.63
2023-01-10T16:43:34.665Z,1.95
2023-01-10T16:46:20.360Z,1.70
2023-01-10T16:49:07.784Z,1.65
2023-01-10T16:51:54.081Z,2.00
2023-01-10T16:54:39.690Z,1.80
2023-01-10T16:57:26.683Z,1.48
2023-01-10T17:00:16.052Z,1.50
2023-01-10T17:03:03.992Z,1.52
2023-01-10T17:05:50.599Z,2.10
2023-01-10T17:08:36.271Z,2.17
2023-01-10T17:11:25.283Z,1.60
2023-01-10T17:14:14.767Z,1.40
2023-01-10T17:17:03.168Z,1.65
2023-01-10T17:19:48.924Z,1.75
2023-01-10T17:22:34.685Z,1.92
2023-01-10T17:25:20.867Z,1.65
2023-01-10T17:28:06.331Z,2.40
2023-01-10T17:30:52.278Z,1.85
2023-01-10T17:33:38.179Z,1.50
2023-01-10T17:36:29.072Z,1.73
2023-01-10T17:39:15.151Z,1.90
2023-01-10T17:42:00.955Z,1.75
2023-01-10T17:44:46.635Z,2.05
2023-01-10T17:47:32.427Z,12.32
2023-01-10T17:50:18.325Z,12.13
2023-01-10T17:53:04.646Z,17.38
2023-01-10T17:55:51.095Z,4.78
2023-01-10T17:58:37.078Z,18.83
2023-01-10T18:01:25.729Z,8.05
2023-01-10T18:04:12.908Z,4.47
2023-01-10T18:06:58.812Z,2.47
2023-01-10T18:09:44.541Z,2.20
2023-01-10T18:12:30.351Z,2.00
2023-01-10T18:15:16.024Z,2.45
2023-01-10T18:18:01.678Z,1.90
2023-01-10T18:20:47.414Z,2.42
2023-01-10T18:23:33.904Z,1.70
2023-01-10T18:26:20.849Z,1.70
2023-01-10T18:29:06.994Z,1.80
2023-01-10T18:31:53.643Z,1.60
2023-01-10T18:34:39.704Z,1.60
2023-01-10T18:37:25.448Z,1.98
2023-01-10T18:40:12.205Z,1.50
2023-01-10T18:42:59.085Z,2.05
2023-01-10T18:46:01.737Z,2.55
2023-01-10T18:49:00.284Z,1.98
2023-01-10T18:51:47.037Z,2.30
2023-01-10T18:54:32.945Z,1.30
2023-01-10T18:57:19.466Z,1.40
2023-01-10T19:00:11.075Z,1.33
2023-01-10T19:02:59.593Z,2.80
2023-01-10T19:05:45.407Z,1.65
2023-01-10T19:08:32.696Z,2.60
2023-01-10T19:11:22.042Z,11.93
2023-01-10T19:14:40.283Z,10.68
2023-01-10T19:17:27.860Z,1.92
2023-01-10T19:20:16.422Z,3.10
2023-01-10T19:23:09.711Z,1.98
2023-01-10T19:25:56.699Z,2.78
2023-01-10T19:28:43.851Z,2.00
2023-01-10T19:31:29.843Z,2.10
2023-01-10T19:34:16.623Z,1.92
2023-01-10T19:37:03.380Z,1.30
2023-01-10T19:39:49.510Z,1.33
2023-01-10T19:42:37.455Z,2.40
2023-01-10T19:45:23.042Z,2.50
2023-01-10T19:48:08.736Z,1.45
2023-01-10T19:50:54.834Z,2.58
2023-01-10T19:53:45.507Z,1.60
2023-01-10T19:56:37.654Z,1.42
2023-01-10T19:59:24.035Z,1.40
2023-01-10T20:02:13.186Z,2.50
2023-01-10T20:04:59.058Z,1.35
2023-01-10T20:07:49.243Z,1.27
2023-01-10T20:10:35.315Z,1.80
2023-01-10T20:13:21.314Z,1.50
2023-01-10T20:16:07.428Z,1.60
2023-01-10T20:18:53.614Z,1.40
2023-01-10T20:21:40.908Z,1.83
2023-01-10T20:24:27.240Z,1.83
2023-01-10T20:27:13.287Z,1.98
2023-01-10T20:29:59.067Z,1.63
2023-01-10T20:32:44.861Z,1.35
2023-01-10T20:35:30.541Z,1.60
2023-01-10T20:38:16.149Z,1.80
2023-01-10T20:41:07.978Z,1.60
2023-01-10T20:43:58.638Z,1.60
2023-01-10T20:46:44.570Z,3.20
2023-01-10T20:49:34.644Z,3.17
2023-01-10T20:52:20.383Z,2.72
2023-01-10T20:55:06.399Z,2.38
2023-01-10T20:57:52.578Z,2.67
2023-01-10T21:00:42.593Z,2.10
2023-01-10T21:03:29.385Z,1.85
2023-01-10T21:06:18.541Z,3.13
2023-01-10T21:09:37.330Z,4.18
2023-01-10T21:12:31.790Z,3.50
2023-01-10T21:15:18.799Z,2.65
2023-01-10T21:18:04.648Z,3.25
2023-01-10T21:20:54.593Z,2.17
2023-01-10T21:23:40.853Z,3.80
2023-01-10T21:26:26.871Z,3.00
2023-01-10T21:29:19.061Z,2.72
2023-01-10T21:32:06.232Z,2.70
2023-01-10T21:34:52.087Z,2.80
2023-01-10T21:37:37.696Z,2.42
2023-01-10T21:40:25.250Z,2.75
2023-01-10T21:43:11.293Z,2.58
2023-01-10T21:46:00.420Z,2.50
2023-01-10T21:48:46.539Z,1.73
2023-01-10T21:51:32.645Z,2.95
2023-01-10T21:54:18.313Z,2.58
2023-01-10T21:57:04.076Z,2.38
2023-01-10T21:59:50.908Z,1.60
2023-01-10T22:02:36.626Z,1.50
2023-01-10T22:05:22.374Z,1.60
2023-01-10T22:08:08.073Z,1.70
2023-01-10T22:10:53.676Z,1.77
2023-01-10T22:13:39.484Z,1.70
2023-01-10T22:16:25.349Z,1.80
2023-01-10T22:19:12.899Z,2.15
2023-01-10T22:21:58.542Z,1.73
2023-01-10T22:24:46.885Z,2.85
2023-01-10T22:27:32.636Z,2.28
2023-01-10T22:30:18.473Z,1.98
2023-01-10T22:33:04.266Z,2.40
2023-01-10T22:35:49.961Z,2.53
2023-01-10T22:38:35.698Z,2.00
2023-01-10T22:41:27.314Z,3.80
2023-01-10T22:44:19.093Z,4.18
2023-01-10T22:47:04.998Z,3.10
2023-01-10T22:49:51.970Z,3.30
2023-01-10T22:52:37.493Z,2.63
2023-01-10T22:55:23.194Z,2.80
2023-01-10T22:58:08.911Z,2.38
2023-01-10T23:00:54.683Z,2.30
2023-01-10T23:03:40.420Z,2.47
2023-01-10T23:06:26.165Z,1.83
2023-01-10T23:09:12.060Z,1.65
2023-01-10T23:11:58.017Z,1.95
2023-01-10T23:14:43.742Z,1.60
2023-01-10T23:17:29.585Z,2.33
2023-01-10T23:20:16.792Z,1.90
2023-01-10T23:23:02.463Z,1.50
2023-01-10T23:26:01.602Z,2.20
2023-01-10T23:28:49.844Z,1.70
2023-01-10T23:31:35.629Z,1.70
2023-01-10T23:34:21.294Z,2.05
2023-01-10T23:37:06.783Z,1.60
2023-01-10T23:39:52.475Z,1.50
2023-01-10T23:42:38.242Z,2.05
2023-01-10T23:45:34.287Z,2.03
2023-01-10T23:48:28.288Z,1.50
2023-01-10T23:51:24.922Z,1.80
2023-01-10T23:54:17.408Z,1.48
2023-01-10T23:57:03.551Z,1.27
